Saturday, August 18, 2018, 2:51 AM GMT
Back to Local

CYPD, Port Hawkesbury

Location: , , Canada Lat: 45.667
Local Time: 2:51 AM GMT ( 2:51 GMT) Lon: -61.383
Time Zone: GMT Elev: 374 ft

Show me the last for .
Show Decoded

2018-08-18 02:00 METAR CYPD 180200Z AUTO 05002KT 9SM CLR 09/09 A3005 RMK SLP178 =
2018-08-18 01:00 METAR CYPD 180100Z AUTO 04004KT 9SM CLR 12/10 A3006 RMK SLP181 =
2018-08-18 00:00 METAR CYPD 180000Z AUTO 34003KT 9SM CLR 13/10 A3005 RMK SLP180 =
2018-08-17 23:00 METAR CYPD 172300Z AUTO 30004KT 9SM CLR 16/11 A3005 RMK SLP177 =
2018-08-17 22:00 METAR CYPD 172200Z AUTO 29006KT 9SM CLR 18/11 A3005 RMK SLP177 DENSITY ALT 600FT
                 =
2018-08-17 21:00 METAR CYPD 172100Z AUTO 31009KT 9SM CLR 19/12 A3004 RMK SLP175 DENSITY ALT 800FT
                 =
2018-08-17 20:00 METAR CYPD 172000Z AUTO 30009G16KT 280V340 9SM CLR 20/11 A3004 RMK SLP174
                 DENSITY ALT 800FT =
2018-08-17 19:00 METAR CYPD 171900Z AUTO 29011G17KT 9SM CLR 20/11 A3004 RMK SLP175 DENSITY ALT
                 800FT =
2018-08-17 18:00 METAR CYPD 171800Z AUTO 29014G22KT 9SM SCT039 20/11 A3004 RMK SLP176 DENSITY ALT
                 900FT =
2018-08-17 17:00 METAR CYPD 171700Z AUTO 29014KT 270V030 9SM OVC035 20/12 A3004 RMK SLP176
                 DENSITY ALT 900FT =
2018-08-17 16:00 METAR CYPD 171600Z AUTO 30012G18KT 280V360 9SM BKN030 OVC035 19/12 A3005 RMK
                 SLP179 DENSITY ALT 700FT =
2018-08-17 15:00 METAR CYPD 171500Z AUTO 34005KT 290V020 9SM OVC033 19/12 A3005 RMK SLP179
                 DENSITY ALT 800FT =
2018-08-17 14:00 METAR CYPD 171400Z AUTO 35009KT 290V020 9SM BKN031 19/12 A3006 RMK SLP180
                 DENSITY ALT 700FT =
2018-08-17 13:00 METAR CYPD 171300Z AUTO 36009G15KT 300V030 9SM BKN031 18/12 A3005 RMK SLP178
                 DENSITY ALT 600FT =
2018-08-17 12:00 METAR CYPD 171200Z AUTO 33006KT 290V010 9SM OVC027 18/12 A3004 RMK SLP176
                 DENSITY ALT 600FT =
2018-08-17 11:00 METAR CYPD 171100Z AUTO 35007KT 270V030 9SM OVC025 18/13 A3004 RMK SLP174
                 DENSITY ALT 600FT =
2018-08-17 10:50 METAR CYPD 171050Z AUTO 35007KT 9SM OVC025 17/13 A3004 RMK SLP173 DENSITY ALT
                 500FT =
2018-08-17 10:42 METAR CYPD 171042Z AUTO 34007KT 9SM OVC023 16/12 A3003 RMK SLP172 DENSITY ALT
                 400FT =
2018-08-17 10:00 METAR CYPD 171000Z AUTO 34006KT 300V010 9SM BKN025 16/12 A3003 RMK SLP170
                 DENSITY ALT 400FT =
2018-08-17 09:57 METAR CYPD 170957Z AUTO 33006KT 300V020 9SM BKN025 16/12 A3002 RMK SLP169
                 DENSITY ALT 400FT =
2018-08-17 09:48 METAR CYPD 170948Z AUTO 35007KT 320V020 9SM BKN023 BKN028 15/12 A3002 RMK SLP168
                 =
2018-08-17 09:00 METAR CYPD 170900Z AUTO 35006KT 310V020 9SM SCT027 15/13 A3001 RMK SLP165 =
2018-08-17 08:00 METAR CYPD 170800Z AUTO 34005KT 300V010 9SM BKN027 BKN065 16/13 A3000 RMK SLP161
                 DENSITY ALT 400FT =
2018-08-17 07:00 METAR CYPD 170700Z AUTO 35008KT 300V020 9SM OVC027 16/14 A2999 RMK SLP158
                 DENSITY ALT 500FT =
2018-08-17 06:27 METAR CYPD 170627Z AUTO 34007KT 280V360 9SM OVC025 16/14 A2998 RMK SLP156
                 DENSITY ALT 500FT =
2018-08-17 06:00 METAR CYPD 170600Z AUTO 34005KT 290V020 9SM OVC022 16/14 A2998 RMK SLP156
                 DENSITY ALT 500FT =
2018-08-17 05:00 METAR CYPD 170500Z AUTO 35008KT 310V010 9SM OVC017 16/14 A2997 RMK SLP149
                 DENSITY ALT 500FT =
2018-08-17 04:00 METAR CYPD 170400Z AUTO 34008KT 310V020 9SM OVC017 17/15 A2996 RMK SLP146
                 DENSITY ALT 600FT =
2018-08-17 03:00 METAR CYPD 170300Z AUTO 34005KT 300V010 9SM BKN019 OVC025 17/15 A2995 RMK SLP143
                 DENSITY ALT 700FT =

Support USWX by starting your Amazon purchase here.